Time;durP1;ratioP1;P1;durP2;ratioP2;P2;SDS_P1;SDS_P2;PMS_P1;PMS_P2;Temp;Humidity;BMP_temperature;BMP_pressure;BME280_temperature;BME280_humidity;BME280_pressure;Samples;Min_cycle;Max_cycle;Signal;HPM_P1;HPM_P2
2023/02/19 00:02:24;;;;;;;48.27;29.00;;;11.40;99.90;;;;;;5096715;28;20196;-83
2023/02/19 00:04:50;;;;;;;55.20;30.87;;;11.50;99.90;;;;;;5096515;28;20542;-83
2023/02/19 00:07:16;;;;;;;50.57;31.87;;;11.50;99.90;;;;;;5095040;28;20204;-83
2023/02/19 00:09:41;;;;;;;48.73;31.20;;;11.50;99.90;;;;;;5095070;28;20447;-82
2023/02/19 00:12:07;;;;;;;48.50;29.50;;;11.40;99.90;;;;;;5096457;28;20238;-82
2023/02/19 00:14:33;;;;;;;50.90;29.63;;;11.40;99.90;;;;;;5096269;28;20989;-83
2023/02/19 00:16:58;;;;;;;54.80;31.77;;;11.40;99.90;;;;;;5095315;28;20185;-83
2023/02/19 00:19:24;;;;;;;50.10;30.33;;;11.40;99.90;;;;;;5096246;28;20173;-83
2023/02/19 00:21:52;;;;;;;51.23;31.50;;;11.40;99.90;;;;;;5096229;28;20226;-84
2023/02/19 00:24:18;;;;;;;46.28;28.90;;;11.40;99.90;;;;;;5095281;28;20428;-83
2023/02/19 00:26:46;;;;;;;45.35;29.25;;;11.40;99.90;;;;;;5094625;28;20173;-83
2023/02/19 00:29:13;;;;;;;45.50;29.50;;;11.40;99.90;;;;;;5096057;28;20172;-83
2023/02/19 00:31:39;;;;;;;55.13;30.80;;;11.30;99.90;;;;;;5095790;28;20186;-83
2023/02/19 00:34:05;;;;;;;49.40;31.70;;;11.30;99.90;;;;;;5095865;28;20625;-83
2023/02/19 00:36:34;;;;;;;50.20;28.92;;;11.30;99.90;;;;;;5094442;28;20270;-82
2023/02/19 00:39:00;;;;;;;50.85;31.65;;;11.30;99.90;;;;;;5094490;28;20204;-82
2023/02/19 00:41:26;;;;;;;46.37;29.67;;;11.30;99.90;;;;;;5094492;28;20185;-82
2023/02/19 00:43:57;;;;;;;50.13;30.70;;;11.30;99.90;;;;;;5094449;28;20511;-83
2023/02/19 00:46:38;;;;;;;47.03;31.45;;;11.20;99.90;;;;;;5094460;28;20433;-83
2023/02/19 00:49:05;;;;;;;51.35;30.65;;;11.20;99.90;;;;;;5094333;28;20541;-84
2023/02/19 00:51:35;;;;;;;51.00;29.88;;;11.20;99.90;;;;;;5095347;28;20172;-83
2023/02/19 00:54:01;;;;;;;51.35;31.02;;;11.20;99.90;;;;;;5095443;28;20242;-83
2023/02/19 00:56:26;;;;;;;45.40;27.83;;;11.10;99.90;;;;;;5094102;28;20551;-83
2023/02/19 00:58:53;;;;;;;48.10;29.63;;;11.10;99.90;;;;;;5094066;28;20816;-83
2023/02/19 01:01:19;;;;;;;53.10;29.50;;;11.10;99.90;;;;;;5094152;28;20477;-83
2023/02/19 01:03:45;;;;;;;48.13;29.63;;;11.10;99.90;;;;;;5095182;28;20261;-83
2023/02/19 01:06:15;;;;;;;49.35;30.02;;;11.10;99.90;;;;;;5095188;28;20169;-83
2023/02/19 01:08:40;;;;;;;44.50;28.88;;;11.10;99.90;;;;;;5094018;28;20676;-83
2023/02/19 01:11:08;;;;;;;48.60;29.07;;;11.10;99.90;;;;;;5095145;28;20180;-83
2023/02/19 01:13:34;;;;;;;47.33;30.17;;;11.00;99.90;;;;;;5094700;28;20701;-83
2023/02/19 01:16:04;;;;;;;46.25;29.45;;;11.00;99.90;;;;;;5093740;28;20557;-83
2023/02/19 01:18:31;;;;;;;44.05;27.77;;;10.90;99.90;;;;;;5094926;28;20192;-83
2023/02/19 01:20:56;;;;;;;49.83;30.00;;;10.70;99.90;;;;;;5095004;28;20229;-83
2023/02/19 01:23:22;;;;;;;45.70;29.40;;;10.60;99.90;;;;;;5094842;28;20224;-83
2023/02/19 01:25:48;;;;;;;49.57;29.03;;;10.50;99.90;;;;;;5093926;28;20519;-83
2023/02/19 01:28:14;;;;;;;51.40;30.60;;;10.40;99.90;;;;;;5093456;28;20209;-83
2023/02/19 01:30:39;;;;;;;52.60;31.20;;;10.30;99.90;;;;;;5094845;28;20405;-83
2023/02/19 01:33:07;;;;;;;48.23;31.63;;;10.30;99.90;;;;;;5095011;28;20515;-83
2023/02/19 01:35:33;;;;;;;46.17;30.95;;;10.30;99.90;;;;;;5094667;28;20541;-83
2023/02/19 01:37:59;;;;;;;47.67;31.27;;;10.30;99.90;;;;;;5093587;28;20232;-83
2023/02/19 01:40:25;;;;;;;52.20;31.10;;;10.40;99.90;;;;;;5094673;28;20207;-83
2023/02/19 01:42:51;;;;;;;53.67;32.30;;;10.40;99.90;;;;;;5093642;28;20196;-83
2023/02/19 01:45:29;;;;;;;51.40;30.13;;;10.40;99.90;;;;;;5093335;28;20267;-81
2023/02/19 01:48:06;;;;;;;51.42;31.83;;;10.40;99.90;;;;;;5094836;28;20238;-83
2023/02/19 01:50:37;;;;;;;54.60;32.58;;;10.20;99.90;;;;;;5094447;28;20168;-83
2023/02/19 01:53:06;;;;;;;51.53;31.67;;;10.20;99.90;;;;;;5093286;28;20220;-83
2023/02/19 01:55:33;;;;;;;53.45;31.25;;;10.10;99.90;;;;;;5093179;28;20177;-84
2023/02/19 01:58:00;;;;;;;56.55;34.47;;;10.10;99.90;;;;;;5094356;28;20258;-84
2023/02/19 02:00:26;;;;;;;50.45;32.10;;;10.10;99.90;;;;;;5093125;28;20637;-83
2023/02/19 02:02:55;;;;;;;55.83;30.97;;;10.00;99.90;;;;;;5094524;28;20211;-83
2023/02/19 02:05:30;;;;;;;54.55;33.90;;;9.90;99.90;;;;;;5094256;28;20401;-83
2023/02/19 02:10:42;;;;;;;58.00;33.03;;;9.50;99.90;;;;;;5094448;28;20176;-83
2023/02/19 02:13:07;;;;;;;61.63;33.33;;;9.40;99.90;;;;;;5092659;28;20311;-83
2023/02/19 02:15:53;;;;;;;54.33;32.87;;;9.40;99.90;;;;;;5094069;28;20196;-83
2023/02/19 02:18:46;;;;;;;59.55;35.72;;;9.50;99.90;;;;;;5094543;28;20753;-83
2023/02/19 02:21:49;;;;;;;54.38;32.20;;;9.50;99.90;;;;;;5094016;28;20165;-83
2023/02/19 02:24:40;;;;;;;53.67;32.35;;;9.60;99.90;;;;;;5092734;28;20191;-83
2023/02/19 02:27:27;;;;;;;49.90;31.58;;;9.50;99.90;;;;;;5094107;28;20203;-83
2023/02/19 02:30:25;;;;;;;58.03;33.05;;;9.50;99.90;;;;;;5094089;28;20165;-83
2023/02/19 02:33:11;;;;;;;54.25;32.42;;;9.70;99.90;;;;;;5075782;28;20703;-83
2023/02/19 02:35:49;;;;;;;56.88;33.20;;;9.80;99.90;;;;;;5094134;28;20160;-83
2023/02/19 02:38:17;;;;;;;47.70;29.25;;;9.80;99.90;;;;;;5092688;28;20207;-84
2023/02/19 02:40:44;;;;;;;53.95;31.88;;;9.70;99.90;;;;;;5095629;28;20183;-83
2023/02/19 02:43:11;;;;;;;50.83;32.00;;;9.70;99.90;;;;;;5099088;28;20204;-83
2023/02/19 02:45:38;;;;;;;52.40;32.38;;;9.50;99.90;;;;;;5099062;28;20637;-82
2023/02/19 02:48:13;;;;;;;55.65;33.53;;;9.20;99.90;;;;;;5100803;28;20626;-83
2023/02/19 02:51:06;;;;;;;48.47;31.15;;;9.10;99.90;;;;;;5099166;28;20183;-83
2023/02/19 02:56:19;;;;;;;53.05;32.08;;;9.00;99.90;;;;;;5100429;28;20545;-83
2023/02/19 02:58:47;;;;;;;52.88;31.52;;;9.00;99.90;;;;;;5098994;28;20315;-83
2023/02/19 03:04:14;;;;;;;56.22;30.73;;;9.00;99.90;;;;;;5100666;28;20286;-83
2023/02/19 03:06:42;;;;;;;55.40;30.70;;;9.00;99.90;;;;;;5100236;28;20259;-83
2023/02/19 03:09:21;;;;;;;54.25;32.47;;;9.00;99.90;;;;;;5100249;28;20260;-83
2023/02/19 03:20:28;;;;;;;48.17;30.83;;;8.80;99.90;;;;;;5100276;28;20168;-84
2023/02/19 03:22:55;;;;;;;50.17;31.92;;;8.80;99.90;;;;;;5098604;28;20196;-83
2023/02/19 03:28:16;;;;;;;51.40;30.30;;;8.90;99.90;;;;;;5100784;28;20203;-83
2023/02/19 03:30:46;;;;;;;54.22;31.92;;;8.80;99.90;;;;;;5098783;28;20176;-83
2023/02/19 03:33:20;;;;;;;53.53;31.52;;;8.90;99.90;;;;;;5100434;28;20222;-83
2023/02/19 03:35:54;;;;;;;50.95;30.27;;;9.00;99.90;;;;;;5099967;28;20180;-83
2023/02/19 03:38:28;;;;;;;52.92;29.13;;;9.00;99.90;;;;;;5098874;28;20624;-83
2023/02/19 03:41:18;;;;;;;49.17;29.85;;;9.00;99.90;;;;;;5098782;28;20180;-83
2023/02/19 03:44:06;;;;;;;48.03;29.58;;;9.20;99.90;;;;;;5098580;28;20200;-83
2023/02/19 03:46:35;;;;;;;50.83;31.45;;;9.20;99.90;;;;;;5098632;28;20321;-83
2023/02/19 03:49:11;;;;;;;49.72;28.73;;;9.30;99.90;;;;;;5098512;28;20203;-83
2023/02/19 03:51:43;;;;;;;51.88;29.80;;;9.20;99.90;;;;;;5099053;28;20183;-83
2023/02/19 03:54:27;;;;;;;48.95;29.90;;;9.20;99.90;;;;;;5096720;28;20641;-84
2023/02/19 03:57:28;;;;;;;47.67;29.13;;;9.20;99.90;;;;;;5095357;28;20714;-83
2023/02/19 04:00:21;;;;;;;45.75;29.38;;;9.20;99.90;;;;;;5050587;28;20188;-83
2023/02/19 04:02:54;;;;;;;46.40;28.80;;;9.20;99.90;;;;;;5095352;28;20192;-83
2023/02/19 04:05:27;;;;;;;45.38;27.08;;;9.10;99.90;;;;;;5095259;28;20676;-83
2023/02/19 04:08:00;;;;;;;45.63;29.27;;;9.10;99.90;;;;;;5096962;28;20206;-84
2023/02/19 04:10:27;;;;;;;53.78;29.20;;;9.10;99.90;;;;;;5095128;28;20638;-82
2023/02/19 04:13:01;;;;;;;46.70;28.20;;;9.10;99.90;;;;;;5096573;28;20212;-83
2023/02/19 04:15:31;;;;;;;46.55;30.15;;;9.10;99.90;;;;;;5096544;28;20605;-83
2023/02/19 04:18:01;;;;;;;51.88;30.55;;;9.20;99.90;;;;;;5096556;28;20665;-83
2023/02/19 04:20:30;;;;;;;47.28;29.55;;;9.10;99.90;;;;;;5094892;28;20180;-83
2023/02/19 04:22:57;;;;;;;51.28;30.77;;;9.20;99.90;;;;;;5094885;28;20200;-83
2023/02/19 04:25:25;;;;;;;49.60;29.70;;;9.20;99.90;;;;;;5096093;28;20207;-83
2023/02/19 04:27:50;;;;;;;53.50;30.88;;;9.20;99.90;;;;;;5094756;28;20200;-83
2023/02/19 04:30:16;;;;;;;48.57;29.60;;;9.20;99.90;;;;;;5094730;28;20176;-82
2023/02/19 04:32:42;;;;;;;46.83;29.20;;;9.20;99.90;;;;;;5094546;28;20491;-83
2023/02/19 04:35:08;;;;;;;44.33;29.20;;;9.30;99.90;;;;;;5094564;28;20187;-83
2023/02/19 04:37:34;;;;;;;41.97;28.03;;;9.40;99.90;;;;;;5096039;28;20436;-84
2023/02/19 04:39:59;;;;;;;42.10;27.93;;;9.30;99.90;;;;;;5094518;28;20462;-82
2023/02/19 04:42:25;;;;;;;44.50;27.20;;;9.40;99.90;;;;;;5095592;28;20218;-83
2023/02/19 04:44:51;;;;;;;44.13;26.53;;;9.40;99.90;;;;;;5094457;28;20552;-83
2023/02/19 04:47:16;;;;;;;40.40;26.67;;;9.40;99.90;;;;;;5095902;28;20279;-83
2023/02/19 04:49:43;;;;;;;43.40;24.43;;;9.50;99.90;;;;;;5094285;28;20181;-82
2023/02/19 04:52:09;;;;;;;41.28;25.10;;;9.50;99.90;;;;;;5094228;28;20693;-83
2023/02/19 04:54:34;;;;;;;39.37;24.40;;;9.50;99.90;;;;;;5094235;28;20188;-83
2023/02/19 04:57:00;;;;;;;37.90;24.90;;;9.60;99.90;;;;;;5094201;28;20453;-83
2023/02/19 04:59:26;;;;;;;36.90;23.10;;;9.60;99.90;;;;;;5095442;28;20409;-83
2023/02/19 05:01:52;;;;;;;42.80;26.83;;;9.60;99.90;;;;;;5095533;28;20172;-83
2023/02/19 05:04:17;;;;;;;40.80;25.63;;;9.40;99.90;;;;;;5093583;28;20481;-82
2023/02/19 05:06:43;;;;;;;39.20;24.33;;;9.50;99.90;;;;;;5093951;28;20188;-83
2023/02/19 05:09:09;;;;;;;34.40;23.20;;;9.60;99.90;;;;;;5093914;28;20191;-83
2023/02/19 05:11:35;;;;;;;35.90;23.07;;;9.70;99.90;;;;;;5095138;28;20538;-83
2023/02/19 05:14:00;;;;;;;37.70;23.17;;;9.80;99.90;;;;;;5093570;28;20534;-83
2023/02/19 05:16:26;;;;;;;32.77;21.77;;;9.80;99.90;;;;;;5093636;28;20416;-83
2023/02/19 05:18:52;;;;;;;33.47;23.47;;;9.80;99.90;;;;;;5093719;28;20193;-83
2023/02/19 05:21:18;;;;;;;35.47;23.30;;;9.80;99.90;;;;;;5094148;28;20177;-83
2023/02/19 05:23:44;;;;;;;32.10;22.70;;;9.90;99.90;;;;;;5094893;28;20426;-83
2023/02/19 05:26:16;;;;;;;34.93;22.40;;;10.00;99.90;;;;;;5093624;28;20184;-83
2023/02/19 05:28:46;;;;;;;35.15;22.35;;;10.10;99.90;;;;;;5094791;28;20428;-83
2023/02/19 05:31:12;;;;;;;29.73;20.17;;;10.10;99.90;;;;;;5094755;28;20208;-83
2023/02/19 05:33:38;;;;;;;29.25;21.60;;;10.10;99.90;;;;;;5094653;28;20212;-83
2023/02/19 05:36:09;;;;;;;33.30;21.07;;;10.30;99.90;;;;;;5093443;28;20655;-82
2023/02/19 05:38:36;;;;;;;30.38;20.40;;;10.40;99.90;;;;;;5093395;28;20341;-83
2023/02/19 05:41:16;;;;;;;27.33;19.17;;;10.50;99.90;;;;;;5098585;28;20180;-83
2023/02/19 05:43:44;;;;;;;27.75;18.90;;;10.50;99.90;;;;;;5110213;28;20211;-83
2023/02/19 05:46:13;;;;;;;27.92;18.70;;;10.50;99.90;;;;;;5112938;28;20175;-83
2023/02/19 05:48:39;;;;;;;30.88;21.73;;;10.60;99.90;;;;;;5096428;28;20272;-83
2023/02/19 05:51:07;;;;;;;27.98;18.77;;;10.60;99.90;;;;;;5092865;28;20172;-83
2023/02/19 05:53:33;;;;;;;26.58;17.48;;;10.60;99.90;;;;;;5114241;28;20264;-83
2023/02/19 05:55:59;;;;;;;26.23;18.60;;;10.60;99.90;;;;;;5091187;28;20185;-83
2023/02/19 05:58:26;;;;;;;30.10;18.93;;;10.70;99.90;;;;;;5103800;28;20631;-83
2023/02/19 06:00:52;;;;;;;31.02;18.52;;;10.70;99.90;;;;;;5104466;28;20455;-83
2023/02/19 06:03:18;;;;;;;23.60;16.63;;;10.80;99.90;;;;;;5091714;28;20203;-83
2023/02/19 06:05:44;;;;;;;25.63;17.90;;;10.80;99.90;;;;;;5103568;28;20603;-83
2023/02/19 06:08:14;;;;;;;27.33;19.33;;;10.80;99.90;;;;;;5087486;28;20218;-83
2023/02/19 06:10:40;;;;;;;31.38;19.65;;;10.90;99.90;;;;;;5106708;28;20515;-83
2023/02/19 06:13:08;;;;;;;21.38;16.10;;;10.80;99.90;;;;;;5091639;28;20223;-83
2023/02/19 06:15:34;;;;;;;26.40;17.48;;;10.90;99.90;;;;;;5090906;28;20203;-83
2023/02/19 06:18:00;;;;;;;27.25;18.23;;;10.90;99.90;;;;;;5095336;28;20291;-83
2023/02/19 06:20:27;;;;;;;23.85;17.77;;;10.90;99.90;;;;;;5088821;28;20218;-82
2023/02/19 06:22:53;;;;;;;25.35;17.48;;;11.00;99.90;;;;;;5097062;28;20203;-83
2023/02/19 06:25:19;;;;;;;27.80;18.65;;;11.00;99.90;;;;;;5080721;28;20191;-82
2023/02/19 06:27:45;;;;;;;29.17;21.80;;;11.00;99.90;;;;;;5108874;28;20207;-83
2023/02/19 06:30:11;;;;;;;29.73;19.93;;;10.90;99.90;;;;;;5111770;28;20432;-82
2023/02/19 06:32:37;;;;;;;22.48;16.58;;;10.80;99.90;;;;;;5110411;28;20220;-83
2023/02/19 06:35:03;;;;;;;24.73;16.70;;;10.80;99.90;;;;;;5111302;28;20164;-83
2023/02/19 06:37:29;;;;;;;23.83;16.77;;;10.80;99.90;;;;;;5093090;28;20448;-83
2023/02/19 06:39:55;;;;;;;22.85;17.38;;;10.90;99.90;;;;;;5110806;28;20310;-83
2023/02/19 06:42:21;;;;;;;27.20;17.33;;;10.90;99.90;;;;;;5109992;28;20270;-82
2023/02/19 06:44:47;;;;;;;27.57;18.13;;;11.00;99.90;;;;;;5091865;28;20171;-83
2023/02/19 06:47:13;;;;;;;24.33;16.93;;;11.00;99.90;;;;;;5091906;28;20947;-84
2023/02/19 06:49:39;;;;;;;22.97;17.03;;;11.00;99.90;;;;;;5090421;28;20536;-83
2023/02/19 06:52:05;;;;;;;24.13;17.70;;;10.90;99.90;;;;;;5089776;28;20272;-83
2023/02/19 06:54:32;;;;;;;25.30;16.80;;;10.90;99.90;;;;;;5089814;28;20229;-83
2023/02/19 06:56:58;;;;;;;20.85;15.40;;;11.00;99.90;;;;;;5090557;28;20440;-83
2023/02/19 06:59:24;;;;;;;20.02;15.50;;;11.00;99.90;;;;;;5109216;28;20249;-83
2023/02/19 07:01:50;;;;;;;21.50;15.93;;;11.00;99.90;;;;;;5091286;28;20184;-83
2023/02/19 07:04:16;;;;;;;26.53;16.47;;;11.00;99.90;;;;;;5093197;28;20179;-83
2023/02/19 07:06:42;;;;;;;24.87;17.30;;;11.00;99.90;;;;;;5093512;28;20459;-84
2023/02/19 07:09:08;;;;;;;40.40;28.27;;;11.20;99.90;;;;;;5113218;28;20183;-82
2023/02/19 07:11:37;;;;;;;25.67;20.75;;;11.30;99.90;;;;;;5113930;28;20255;-83
2023/02/19 07:14:06;;;;;;;24.83;17.73;;;11.50;99.90;;;;;;5113664;28;20235;-84
2023/02/19 07:16:32;;;;;;;22.80;16.80;;;11.60;99.90;;;;;;5095562;28;20176;-83
2023/02/19 07:18:59;;;;;;;21.80;14.90;;;11.80;99.90;;;;;;5113712;28;20264;-84
2023/02/19 07:21:26;;;;;;;24.65;17.42;;;12.00;99.90;;;;;;5095657;28;20267;-83
2023/02/19 07:23:52;;;;;;;23.00;17.92;;;12.20;99.90;;;;;;5095442;28;20195;-84
2023/02/19 07:26:19;;;;;;;46.03;31.87;;;12.20;99.90;;;;;;5114302;28;20171;-84
2023/02/19 07:28:47;;;;;;;22.13;14.95;;;12.30;99.90;;;;;;5099209;28;20809;-84
2023/02/19 07:31:14;;;;;;;31.00;22.27;;;12.40;99.90;;;;;;5117576;28;20186;-84
2023/02/19 07:33:43;;;;;;;31.50;21.42;;;12.50;99.90;;;;;;5099062;28;20533;-83
2023/02/19 07:36:10;;;;;;;23.40;15.73;;;12.60;99.90;;;;;;5117413;28;20571;-84
2023/02/19 07:38:36;;;;;;;23.50;16.40;;;12.80;99.90;;;;;;5117312;28;20431;-84
2023/02/19 07:41:03;;;;;;;19.80;14.57;;;13.00;99.90;;;;;;5099008;28;20940;-83
2023/02/19 07:43:32;;;;;;;19.43;14.60;;;13.20;99.90;;;;;;5117271;28;20480;-84
2023/02/19 07:45:57;;;;;;;22.80;19.47;;;13.30;99.90;;;;;;5117159;28;20402;-83
2023/02/19 07:48:23;;;;;;;22.73;16.63;;;13.50;99.90;;;;;;5117376;28;20941;-84
2023/02/19 07:50:57;;;;;;;18.93;15.17;;;13.60;99.90;;;;;;5098842;28;20202;-84
2023/02/19 07:53:24;;;;;;;24.50;14.60;;;13.70;99.90;;;;;;5098766;28;20277;-83
2023/02/19 07:55:50;;;;;;;20.00;15.00;;;13.90;99.90;;;;;;5098867;28;20416;-82
2023/02/19 07:58:16;;;;;;;17.57;14.40;;;14.10;99.90;;;;;;5098852;28;20497;-83
2023/02/19 08:00:43;;;;;;;20.67;15.90;;;14.30;99.90;;;;;;5098597;28;20240;-83
2023/02/19 08:03:09;;;;;;;18.57;14.90;;;14.30;99.90;;;;;;5098427;28;20432;-84
2023/02/19 08:05:39;;;;;;;17.47;12.10;;;14.50;99.90;;;;;;5098602;28;20778;-83
2023/02/19 08:08:11;;;;;;;51.90;34.83;;;14.60;99.90;;;;;;5098778;28;20283;-84
2023/02/19 08:13:21;;;;;;;32.03;26.00;;;14.80;99.90;;;;;;5117002;28;20526;-83
2023/02/19 08:15:51;;;;;;;18.73;12.97;;;14.80;99.90;;;;;;5116692;28;20396;-83
2023/02/19 08:18:20;;;;;;;15.73;11.90;;;14.90;99.90;;;;;;5098627;28;20972;-84
2023/02/19 08:20:46;;;;;;;17.23;12.13;;;14.90;99.90;;;;;;5098580;28;20416;-83
2023/02/19 08:23:12;;;;;;;14.13;10.70;;;14.90;99.90;;;;;;5117032;28;20435;-84
2023/02/19 08:25:39;;;;;;;12.77;10.30;;;15.00;99.90;;;;;;5098194;28;21012;-84
2023/02/19 08:28:06;;;;;;;12.77;9.00;;;15.00;99.90;;;;;;5098401;28;20468;-84
2023/02/19 08:30:32;;;;;;;12.20;8.50;;;15.10;99.90;;;;;;5098128;28;20519;-83
2023/02/19 08:33:00;;;;;;;19.83;15.07;;;15.10;99.90;;;;;;5098172;28;20987;-84
2023/02/19 08:35:26;;;;;;;13.20;10.17;;;15.10;99.90;;;;;;5097995;28;20412;-84
2023/02/19 08:37:56;;;;;;;11.30;7.60;;;15.20;99.90;;;;;;5115773;28;20944;-85
2023/02/19 08:40:23;;;;;;;10.90;8.17;;;15.20;99.90;;;;;;5116190;28;20767;-82
2023/02/19 08:42:48;;;;;;;10.70;8.47;;;15.30;99.90;;;;;;5116517;28;20432;-82
2023/02/19 08:45:14;;;;;;;9.23;7.10;;;15.40;99.90;;;;;;5097848;28;20809;-83
2023/02/19 08:47:40;;;;;;;12.00;8.20;;;15.40;99.90;;;;;;5097889;28;20210;-84
2023/02/19 08:50:07;;;;;;;7.77;6.83;;;15.50;99.90;;;;;;5116169;28;20453;-82
2023/02/19 08:52:33;;;;;;;9.10;7.40;;;15.60;99.90;;;;;;5116143;28;20212;-84
2023/02/19 08:54:59;;;;;;;8.50;7.53;;;15.60;99.90;;;;;;5116056;28;20419;-84
2023/02/19 08:57:25;;;;;;;9.23;6.93;;;15.70;99.90;;;;;;5097581;28;20432;-83
2023/02/19 08:59:51;;;;;;;10.73;8.97;;;15.70;99.90;;;;;;5115862;28;20920;-84
2023/02/19 09:02:17;;;;;;;14.27;10.23;;;15.70;99.90;;;;;;5116001;28;20493;-84
2023/02/19 09:04:43;;;;;;;13.83;9.80;;;15.70;99.90;;;;;;5097394;28;20180;-84
2023/02/19 09:07:11;;;;;;;11.90;10.30;;;15.70;99.90;;;;;;5097279;28;20214;-84
2023/02/19 09:09:37;;;;;;;11.83;9.60;;;15.70;99.90;;;;;;5097517;28;20562;-83
2023/02/19 09:12:07;;;;;;;17.53;12.67;;;15.80;99.90;;;;;;5097292;28;20452;-84
2023/02/19 09:14:34;;;;;;;75.17;50.83;;;15.80;99.90;;;;;;5096994;28;20475;-83
2023/02/19 09:17:01;;;;;;;10.27;8.23;;;15.70;99.90;;;;;;5097239;28;20772;-84
2023/02/19 09:19:28;;;;;;;8.90;8.00;;;15.80;99.90;;;;;;5115707;28;20849;-84
2023/02/19 09:21:54;;;;;;;44.70;35.93;;;15.80;99.90;;;;;;5115495;28;20420;-85
2023/02/19 09:24:20;;;;;;;19.27;15.70;;;15.70;99.90;;;;;;5115308;28;20179;-83
2023/02/19 09:26:50;;;;;;;17.23;13.10;;;15.50;99.90;;;;;;5096844;28;20479;-84
2023/02/19 09:29:16;;;;;;;17.20;13.60;;;15.20;99.90;;;;;;5115248;28;20401;-84
2023/02/19 09:31:42;;;;;;;18.97;14.90;;;15.10;99.90;;;;;;5096666;28;20439;-85
2023/02/19 09:34:08;;;;;;;20.07;15.70;;;14.90;99.90;;;;;;5115181;28;20464;-82
2023/02/19 09:36:34;;;;;;;24.93;16.90;;;14.90;99.90;;;;;;5096754;28;20664;-84
2023/02/19 09:39:00;;;;;;;21.73;16.50;;;14.80;99.90;;;;;;5115095;28;20663;-84
2023/02/19 09:41:34;;;;;;;25.07;18.83;;;14.70;99.90;;;;;;5096673;28;20180;-84
2023/02/19 09:44:05;;;;;;;25.17;18.10;;;14.60;99.90;;;;;;5114893;28;20439;-84
2023/02/19 09:46:42;;;;;;;24.67;17.00;;;14.40;99.90;;;;;;5115017;28;20446;-84
2023/02/19 09:49:15;;;;;;;25.33;18.23;;;14.30;99.90;;;;;;5115218;28;20388;-83
2023/02/19 09:51:47;;;;;;;22.63;16.90;;;14.20;99.90;;;;;;5096707;28;20428;-84
2023/02/19 09:54:20;;;;;;;25.17;18.00;;;14.20;99.90;;;;;;5096493;28;20514;-83
2023/02/19 09:56:46;;;;;;;24.47;17.63;;;14.20;99.90;;;;;;5096332;28;20865;-84
2023/02/19 09:59:46;;;;;;;25.70;19.13;;;14.10;99.90;;;;;;5096422;28;20408;-83
2023/02/19 10:02:20;;;;;;;29.10;20.83;;;14.10;99.90;;;;;;5093008;28;20448;-84
2023/02/19 10:04:49;;;;;;;27.00;18.83;;;14.00;99.90;;;;;;5096370;28;20943;-82
2023/02/19 10:07:19;;;;;;;31.90;22.63;;;14.00;99.90;;;;;;5114754;28;20439;-84
2023/02/19 10:09:51;;;;;;;40.80;32.90;;;13.90;99.90;;;;;;5114263;28;20434;-82
2023/02/19 10:12:30;;;;;;;25.80;19.33;;;13.90;99.90;;;;;;5114635;28;20546;-84
2023/02/19 10:15:16;;;;;;;34.57;21.33;;;13.80;99.90;;;;;;5114212;28;20976;-83
2023/02/19 10:17:41;;;;;;;30.57;21.57;;;13.80;99.90;;;;;;5096279;28;20447;-84
2023/02/19 10:20:14;;;;;;;32.90;21.67;;;13.70;99.90;;;;;;5096291;28;20932;-82
2023/02/19 10:22:40;;;;;;;28.13;19.90;;;13.70;99.90;;;;;;5096294;28;20663;-82
2023/02/19 10:25:06;;;;;;;33.00;18.97;;;13.70;99.90;;;;;;5095975;28;20452;-83
2023/02/19 10:27:32;;;;;;;30.53;19.73;;;13.80;99.90;;;;;;5096107;28;20639;-84
2023/02/19 10:29:59;;;;;;;34.90;22.83;;;13.80;99.90;;;;;;5096078;28;20497;-84
2023/02/19 10:32:26;;;;;;;29.00;19.87;;;13.80;99.90;;;;;;5114400;28;20524;-84
2023/02/19 10:35:15;;;;;;;28.87;19.63;;;13.80;99.90;;;;;;5096057;28;20408;-84
2023/02/19 10:37:47;;;;;;;32.80;23.57;;;13.80;99.90;;;;;;5114448;28;20532;-84
2023/02/19 10:40:17;;;;;;;61.93;44.40;;;13.80;99.90;;;;;;5114196;28;20400;-82
2023/02/19 10:43:01;;;;;;;38.50;28.00;;;13.80;99.90;;;;;;5095943;28;20438;-84
2023/02/19 10:45:36;;;;;;;31.93;23.83;;;13.70;99.90;;;;;;5114125;28;20414;-84
2023/02/19 10:48:02;;;;;;;33.07;25.03;;;13.80;99.90;;;;;;5114709;28;20427;-83
2023/02/19 10:50:38;;;;;;;30.40;20.53;;;13.80;99.90;;;;;;5095873;28;20420;-85
2023/02/19 10:53:05;;;;;;;26.30;19.87;;;13.80;99.90;;;;;;5114164;28;20538;-82
2023/02/19 10:55:33;;;;;;;27.47;19.47;;;13.80;99.90;;;;;;5114038;28;20779;-84
2023/02/19 10:58:25;;;;;;;25.77;18.60;;;13.80;99.90;;;;;;5095854;28;20455;-83
2023/02/19 11:01:19;;;;;;;29.60;21.00;;;13.90;99.90;;;;;;5113996;28;20454;-84
2023/02/19 11:03:46;;;;;;;32.07;20.43;;;14.00;99.90;;;;;;5118006;28;20463;-84
2023/02/19 11:06:14;;;;;;;31.67;21.63;;;14.20;99.90;;;;;;5117905;28;20428;-85
2023/02/19 11:08:48;;;;;;;29.07;18.97;;;14.30;99.90;;;;;;5099600;28;20960;-83
2023/02/19 11:11:37;;;;;;;30.00;19.97;;;14.40;99.90;;;;;;5099780;28;20418;-84
2023/02/19 11:14:22;;;;;;;28.47;18.77;;;14.40;99.90;;;;;;5117509;28;20491;-83
2023/02/19 11:16:57;;;;;;;28.17;18.83;;;14.50;99.90;;;;;;5099569;28;20932;-84
2023/02/19 11:19:35;;;;;;;26.40;18.50;;;14.60;99.90;;;;;;5099520;28;20533;-84
2023/02/19 11:22:16;;;;;;;29.60;17.87;;;14.70;99.90;;;;;;5099359;28;21019;-84
2023/02/19 11:24:48;;;;;;;25.53;18.27;;;14.80;99.90;;;;;;5099584;28;20417;-85
2023/02/19 11:27:20;;;;;;;28.23;19.53;;;14.90;99.90;;;;;;5117851;28;20428;-84
2023/02/19 11:29:46;;;;;;;29.93;19.83;;;14.90;99.90;;;;;;5099360;28;20424;-83
2023/02/19 11:32:25;;;;;;;27.43;19.90;;;14.90;99.90;;;;;;5099208;28;20451;-84
2023/02/19 11:35:06;;;;;;;29.87;22.23;;;15.00;99.90;;;;;;5099230;28;20174;-84
2023/02/19 11:37:32;;;;;;;24.50;18.40;;;15.10;99.90;;;;;;5117677;28;20427;-84
2023/02/19 11:39:57;;;;;;;34.87;21.80;;;15.10;99.90;;;;;;5099205;28;20874;-84
2023/02/19 11:42:36;;;;;;;28.47;22.00;;;15.20;99.90;;;;;;5098629;28;20483;-85
2023/02/19 11:45:36;;;;;;;28.87;19.97;;;15.30;99.90;;;;;;5098971;28;20663;-84
2023/02/19 11:48:13;;;;;;;39.83;27.40;;;15.30;99.90;;;;;;5117627;28;20439;-83
2023/02/19 11:51:18;;;;;;;30.10;21.80;;;15.40;99.90;;;;;;5117248;28;20769;-85
2023/02/19 11:54:14;;;;;;;31.00;22.33;;;15.50;99.90;;;;;;5098740;28;20468;-83
2023/02/19 11:56:43;;;;;;;26.63;17.83;;;15.60;99.90;;;;;;5117181;28;20896;-84
2023/02/19 11:59:14;;;;;;;30.40;20.13;;;15.60;99.90;;;;;;5117123;28;20415;-83
2023/02/19 12:02:01;;;;;;;27.80;18.87;;;15.70;99.90;;;;;;5117073;28;20535;-84
2023/02/19 12:05:01;;;;;;;39.33;25.87;;;15.70;99.90;;;;;;5098734;28;20913;-83
2023/02/19 12:07:45;;;;;;;26.30;19.23;;;15.80;99.90;;;;;;5117120;28;20436;-84
2023/02/19 12:10:34;;;;;;;31.10;22.67;;;16.00;99.90;;;;;;5098554;28;20421;-85
2023/02/19 12:13:18;;;;;;;28.90;20.10;;;16.30;99.90;;;;;;5115366;28;20556;-84
2023/02/19 12:16:11;;;;;;;27.50;19.00;;;16.50;99.90;;;;;;5098461;28;20440;-85
2023/02/19 12:18:46;;;;;;;26.30;20.80;;;16.60;99.90;;;;;;5116667;28;20431;-84
2023/02/19 12:21:20;;;;;;;30.13;23.70;;;16.60;99.90;;;;;;5098325;28;20412;-85
2023/02/19 12:24:15;;;;;;;29.77;20.27;;;16.70;99.90;;;;;;5098233;28;20447;-84
2023/02/19 12:26:59;;;;;;;24.77;18.70;;;16.80;99.90;;;;;;5098181;28;20432;-85
2023/02/19 12:30:02;;;;;;;21.87;16.47;;;16.90;99.90;;;;;;5098217;28;20476;-85
2023/02/19 12:32:52;;;;;;;25.87;18.80;;;17.00;99.90;;;;;;5098126;28;20475;-84
2023/02/19 12:35:40;;;;;;;23.33;18.70;;;17.00;99.90;;;;;;5116515;28;20403;-86
2023/02/19 12:38:22;;;;;;;20.00;16.17;;;17.00;99.90;;;;;;5098228;28;20448;-85
2023/02/19 12:41:28;;;;;;;24.47;17.50;;;16.90;99.90;;;;;;5097994;28;20952;-84
2023/02/19 12:44:00;;;;;;;23.30;16.20;;;16.90;99.90;;;;;;5116181;28;20505;-86
2023/02/19 12:46:31;;;;;;;22.00;16.80;;;16.90;99.90;;;;;;5116274;28;20914;-84
2023/02/19 12:49:11;;;;;;;23.13;15.83;;;16.90;99.90;;;;;;5097849;28;20532;-85
2023/02/19 12:51:49;;;;;;;22.13;16.97;;;16.90;99.90;;;;;;5097783;28;20420;-84
2023/02/19 12:54:33;;;;;;;22.47;16.20;;;17.00;99.90;;;;;;5097781;28;20991;-84
2023/02/19 12:57:08;;;;;;;22.73;16.90;;;17.00;99.90;;;;;;5116161;28;20444;-84
2023/02/19 12:59:52;;;;;;;25.90;16.77;;;17.10;99.90;;;;;;5115900;28;20412;-86
2023/02/19 13:02:36;;;;;;;21.77;15.67;;;17.20;99.90;;;;;;5097617;28;20531;-86
2023/02/19 13:05:20;;;;;;;22.07;16.77;;;17.20;99.90;;;;;;5116199;28;20430;-85
2023/02/19 13:08:00;;;;;;;25.90;16.90;;;17.10;99.90;;;;;;5097810;28;20492;-84
2023/02/19 13:10:40;;;;;;;21.63;16.20;;;17.00;99.90;;;;;;5115738;28;20968;-85
2023/02/19 13:13:15;;;;;;;23.87;17.37;;;17.00;99.90;;;;;;5115262;28;20962;-85
2023/02/19 13:15:49;;;;;;;23.30;15.53;;;17.00;99.90;;;;;;5097205;28;20423;-84